createdAt,value
2023-03-27T00:02:51.711Z,1.90
2023-03-27T00:23:00.855Z,3.97
2023-03-27T00:33:04.134Z,2.72
2023-03-27T00:43:21.566Z,2.35
2023-03-27T00:53:28.089Z,2.25
2023-03-27T01:03:33.526Z,2.38
2023-03-27T01:13:52.136Z,2.10
2023-03-27T01:24:28.507Z,2.33
2023-03-27T01:35:26.527Z,2.60
2023-03-27T01:45:36.776Z,2.53
2023-03-27T01:55:44.946Z,2.55
2023-03-27T02:05:56.396Z,2.63
2023-03-27T02:16:02.830Z,2.80
2023-03-27T02:26:09.920Z,2.95
2023-03-27T02:36:24.093Z,2.97
2023-03-27T02:46:34.134Z,2.75
2023-03-27T02:56:43.598Z,3.38
2023-03-27T03:06:56.222Z,3.08
2023-03-27T03:16:59.666Z,2.22
2023-03-27T03:27:05.727Z,2.75
2023-03-27T03:37:17.961Z,3.47
2023-03-27T03:47:22.288Z,2.28
2023-03-27T03:57:26.032Z,3.53
2023-03-27T04:07:51.230Z,2.15
2023-03-27T04:18:24.759Z,3.20
2023-03-27T04:28:30.400Z,3.50
2023-03-27T04:38:47.981Z,2.70
2023-03-27T04:48:54.304Z,2.47
2023-03-27T04:59:16.704Z,3.22
2023-03-27T05:09:27.517Z,3.13
2023-03-27T05:19:30.986Z,2.47
2023-03-27T05:29:47.034Z,2.22
2023-03-27T05:39:52.979Z,2.80
2023-03-27T05:49:57.470Z,2.65
2023-03-27T06:00:00.893Z,3.30
2023-03-27T06:10:07.648Z,3.47
2023-03-27T06:20:21.407Z,3.88
2023-03-27T06:30:30.347Z,4.35
2023-03-27T06:41:00.660Z,3.88
2023-03-27T06:51:28.056Z,5.38
2023-03-27T07:01:31.236Z,4.68
2023-03-27T07:11:52.628Z,3.42
2023-03-27T07:21:56.367Z,3.50
2023-03-27T07:32:07.151Z,3.20
2023-03-27T07:42:19.653Z,2.97
2023-03-27T07:52:40.530Z,2.20
2023-03-27T08:02:45.668Z,2.13
2023-03-27T08:12:52.261Z,2.08
2023-03-27T08:23:00.751Z,1.88
2023-03-27T08:33:09.879Z,0.98
2023-03-27T08:43:18.768Z,1.58
2023-03-27T08:53:34.152Z,1.90
2023-03-27T09:03:47.257Z,1.48
2023-03-27T09:13:53.267Z,1.77
2023-03-27T09:24:03.209Z,2.28
2023-03-27T09:34:26.569Z,1.20
2023-03-27T09:44:35.349Z,0.73
2023-03-27T09:54:53.965Z,1.00
2023-03-27T10:05:22.655Z,1.25
2023-03-27T10:15:41.420Z,0.95
2023-03-27T10:25:52.003Z,1.75
2023-03-27T10:36:00.934Z,1.40
2023-03-27T10:46:12.501Z,1.50
2023-03-27T10:56:27.484Z,1.35
2023-03-27T11:06:35.217Z,1.60
2023-03-27T11:16:44.354Z,1.83
2023-03-27T11:27:09.989Z,2.25
2023-03-27T11:37:22.180Z,1.98
2023-03-27T11:47:40.990Z,1.98
2023-03-27T11:58:04.388Z,1.67
2023-03-27T12:08:28.508Z,0.82
2023-03-27T12:18:51.190Z,0.98
2023-03-27T12:29:23.708Z,1.23
2023-03-27T12:39:47.016Z,0.90
2023-03-27T12:49:59.005Z,1.65
2023-03-27T13:00:22.137Z,1.30
2023-03-27T13:10:40.407Z,1.40
2023-03-27T13:20:48.953Z,0.80
2023-03-27T13:30:53.820Z,1.85
2023-03-27T13:42:10.860Z,1.30
2023-03-27T13:52:45.592Z,1.38
2023-03-27T14:03:24.466Z,1.85
2023-03-27T14:13:51.144Z,1.27
2023-03-27T14:24:01.083Z,1.58
2023-03-27T14:34:22.458Z,1.17
2023-03-27T14:44:28.658Z,1.63
2023-03-27T14:54:44.636Z,1.60
2023-03-27T15:05:11.414Z,2.05
2023-03-27T15:15:34.564Z,1.63
2023-03-27T15:25:42.848Z,2.63
2023-03-27T15:35:52.703Z,1.83
2023-03-27T15:46:02.212Z,1.73
2023-03-27T15:56:16.001Z,2.58
2023-03-27T16:06:32.721Z,2.17
2023-03-27T16:16:37.845Z,1.67
2023-03-27T16:26:40.908Z,1.50
2023-03-27T16:36:45.322Z,1.65
2023-03-27T16:46:48.346Z,2.47
2023-03-27T16:56:53.201Z,1.30
2023-03-27T17:06:56.489Z,1.58
2023-03-27T17:17:01.388Z,1.95
2023-03-27T17:27:04.567Z,1.80
2023-03-27T17:37:14.576Z,2.35
2023-03-27T17:47:17.961Z,1.48
2023-03-27T17:57:29.591Z,1.70
2023-03-27T18:07:32.734Z,2.03
2023-03-27T18:17:37.165Z,2.35
2023-03-27T18:27:42.011Z,2.03
2023-03-27T18:37:47.292Z,2.27
2023-03-27T18:47:50.339Z,1.88
2023-03-27T18:57:54.891Z,2.47
2023-03-27T19:07:59.430Z,1.83
2023-03-27T19:18:04.074Z,2.00
2023-03-27T19:28:30.096Z,2.08
2023-03-27T19:38:37.337Z,2.60
2023-03-27T19:48:40.490Z,2.30
2023-03-27T19:58:52.280Z,3.25
2023-03-27T20:08:55.570Z,2.00
2023-03-27T20:19:05.876Z,2.80
2023-03-27T20:29:11.157Z,2.22
2023-03-27T20:39:17.020Z,2.75
2023-03-27T20:59:32.337Z,2.50
2023-03-27T21:09:35.395Z,3.03
2023-03-27T21:19:39.763Z,3.08
2023-03-27T21:29:42.860Z,3.50
2023-03-27T21:39:47.288Z,3.58
2023-03-27T21:49:50.402Z,3.90
2023-03-27T21:59:54.769Z,4.13
2023-03-27T22:09:57.827Z,5.23
2023-03-27T22:20:02.180Z,3.28
2023-03-27T22:30:06.023Z,5.20
2023-03-27T22:40:12.081Z,3.43
2023-03-27T22:50:15.843Z,3.78
2023-03-27T23:00:21.275Z,2.85
2023-03-27T23:10:24.289Z,4.28
2023-03-27T23:20:28.720Z,4.68
2023-03-27T23:30:31.677Z,3.10
2023-03-27T23:40:36.172Z,3.35
2023-03-27T23:50:39.186Z,3.47
